sensor_id;sensor_type;location;lat;lon;timestamp;P1;durP1;ratioP1;P2;durP2;ratioP2
37559;SDS011;23398;50.928;7.084;2022-09-12T00:01:21;11.25;;;8.07;;
37559;SDS011;23398;50.928;7.084;2022-09-12T00:03:56;9.63;;;7.43;;
37559;SDS011;23398;50.928;7.084;2022-09-12T00:06:25;9.77;;;7.43;;
37559;SDS011;23398;50.928;7.084;2022-09-12T00:08:53;8.52;;;7.32;;
37559;SDS011;23398;50.928;7.084;2022-09-12T00:11:20;10.63;;;7.90;;
37559;SDS011;23398;50.928;7.084;2022-09-12T00:13:46;11.05;;;8.25;;
37559;SDS011;23398;50.928;7.084;2022-09-12T00:16:19;9.88;;;7.43;;
37559;SDS011;23398;50.928;7.084;2022-09-12T00:18:47;9.68;;;7.65;;
37559;SDS011;23398;50.928;7.084;2022-09-12T00:21:13;11.65;;;7.95;;
37559;SDS011;23398;50.928;7.084;2022-09-12T00:23:40;8.65;;;6.97;;
37559;SDS011;23398;50.928;7.084;2022-09-12T00:26:06;10.55;;;7.63;;
37559;SDS011;23398;50.928;7.084;2022-09-12T00:28:35;8.63;;;7.00;;
37559;SDS011;23398;50.928;7.084;2022-09-12T00:31:05;9.55;;;7.30;;
37559;SDS011;23398;50.928;7.084;2022-09-12T00:33:33;11.07;;;7.63;;
37559;SDS011;23398;50.928;7.084;2022-09-12T00:36:02;11.88;;;8.00;;
37559;SDS011;23398;50.928;7.084;2022-09-12T00:38:29;11.77;;;7.75;;
37559;SDS011;23398;50.928;7.084;2022-09-12T00:40:55;11.93;;;7.32;;
37559;SDS011;23398;50.928;7.084;2022-09-12T00:43:40;8.93;;;7.00;;
37559;SDS011;23398;50.928;7.084;2022-09-12T00:48:54;8.88;;;6.45;;
37559;SDS011;23398;50.928;7.084;2022-09-12T00:51:24;9.60;;;6.05;;
37559;SDS011;23398;50.928;7.084;2022-09-12T00:53:51;8.25;;;6.82;;
37559;SDS011;23398;50.928;7.084;2022-09-12T00:56:18;9.40;;;6.97;;
37559;SDS011;23398;50.928;7.084;2022-09-12T00:58:50;9.38;;;7.20;;
37559;SDS011;23398;50.928;7.084;2022-09-12T01:01:21;10.10;;;7.32;;
37559;SDS011;23398;50.928;7.084;2022-09-12T01:03:47;8.20;;;6.35;;
37559;SDS011;23398;50.928;7.084;2022-09-12T01:06:20;8.07;;;6.55;;
37559;SDS011;23398;50.928;7.084;2022-09-12T01:08:52;9.82;;;6.93;;
37559;SDS011;23398;50.928;7.084;2022-09-12T01:11:19;9.90;;;6.03;;
37559;SDS011;23398;50.928;7.084;2022-09-12T01:13:45;8.18;;;6.05;;
37559;SDS011;23398;50.928;7.084;2022-09-12T01:16:13;8.30;;;6.60;;
37559;SDS011;23398;50.928;7.084;2022-09-12T01:18:57;8.43;;;6.30;;
37559;SDS011;23398;50.928;7.084;2022-09-12T01:27:41;11.15;;;6.97;;
37559;SDS011;23398;50.928;7.084;2022-09-12T01:35:58;7.85;;;6.15;;
37559;SDS011;23398;50.928;7.084;2022-09-12T01:38:33;9.38;;;6.75;;
37559;SDS011;23398;50.928;7.084;2022-09-12T01:41:27;10.52;;;7.07;;
37559;SDS011;23398;50.928;7.084;2022-09-12T01:49:33;8.70;;;6.43;;
37559;SDS011;23398;50.928;7.084;2022-09-12T01:52:09;8.93;;;7.13;;
37559;SDS011;23398;50.928;7.084;2022-09-12T01:55:25;9.82;;;7.22;;
37559;SDS011;23398;50.928;7.084;2022-09-12T01:57:48;9.93;;;7.13;;
37559;SDS011;23398;50.928;7.084;2022-09-12T02:00:15;10.18;;;6.88;;
37559;SDS011;23398;50.928;7.084;2022-09-12T02:02:43;11.77;;;6.75;;
37559;SDS011;23398;50.928;7.084;2022-09-12T02:05:22;8.65;;;6.60;;
37559;SDS011;23398;50.928;7.084;2022-09-12T02:08:17;11.95;;;6.60;;
37559;SDS011;23398;50.928;7.084;2022-09-12T02:10:53;11.75;;;7.32;;
37559;SDS011;23398;50.928;7.084;2022-09-12T02:13:23;11.32;;;7.10;;
37559;SDS011;23398;50.928;7.084;2022-09-12T02:16:12;11.05;;;7.65;;
37559;SDS011;23398;50.928;7.084;2022-09-12T02:18:53;10.52;;;7.35;;
37559;SDS011;23398;50.928;7.084;2022-09-12T02:21:23;9.45;;;6.13;;
37559;SDS011;23398;50.928;7.084;2022-09-12T02:23:56;9.57;;;6.32;;
37559;SDS011;23398;50.928;7.084;2022-09-12T02:26:28;10.40;;;6.18;;
37559;SDS011;23398;50.928;7.084;2022-09-12T02:28:58;9.57;;;7.05;;
37559;SDS011;23398;50.928;7.084;2022-09-12T02:37:05;9.10;;;6.50;;
37559;SDS011;23398;50.928;7.084;2022-09-12T02:39:40;9.05;;;6.13;;
37559;SDS011;23398;50.928;7.084;2022-09-12T02:42:05;8.32;;;5.95;;
37559;SDS011;23398;50.928;7.084;2022-09-12T02:44:31;7.32;;;6.05;;
37559;SDS011;23398;50.928;7.084;2022-09-12T02:47:03;8.38;;;5.88;;
37559;SDS011;23398;50.928;7.084;2022-09-12T02:49:33;8.65;;;5.68;;
37559;SDS011;23398;50.928;7.084;2022-09-12T02:52:00;9.35;;;6.85;;
37559;SDS011;23398;50.928;7.084;2022-09-12T02:54:26;10.32;;;7.15;;
37559;SDS011;23398;50.928;7.084;2022-09-12T02:56:53;7.88;;;6.43;;
37559;SDS011;23398;50.928;7.084;2022-09-12T02:59:19;9.07;;;6.68;;
37559;SDS011;23398;50.928;7.084;2022-09-12T03:02:03;8.52;;;5.75;;
37559;SDS011;23398;50.928;7.084;2022-09-12T03:04:46;8.15;;;5.35;;
37559;SDS011;23398;50.928;7.084;2022-09-12T03:07:25;7.90;;;5.63;;
37559;SDS011;23398;50.928;7.084;2022-09-12T03:18:25;8.88;;;6.00;;
37559;SDS011;23398;50.928;7.084;2022-09-12T03:21:11;9.38;;;5.35;;
37559;SDS011;23398;50.928;7.084;2022-09-12T03:26:48;8.40;;;5.88;;
37559;SDS011;23398;50.928;7.084;2022-09-12T03:29:19;7.03;;;5.63;;
37559;SDS011;23398;50.928;7.084;2022-09-12T03:31:47;8.30;;;6.00;;
37559;SDS011;23398;50.928;7.084;2022-09-12T03:34:18;9.82;;;5.90;;
37559;SDS011;23398;50.928;7.084;2022-09-12T03:36:44;9.73;;;6.15;;
37559;SDS011;23398;50.928;7.084;2022-09-12T03:39:10;9.00;;;6.40;;
37559;SDS011;23398;50.928;7.084;2022-09-12T03:41:37;7.55;;;5.72;;
37559;SDS011;23398;50.928;7.084;2022-09-12T03:44:02;7.55;;;6.07;;
37559;SDS011;23398;50.928;7.084;2022-09-12T03:46:28;8.93;;;5.97;;
37559;SDS011;23398;50.928;7.084;2022-09-12T03:48:53;8.00;;;5.50;;
37559;SDS011;23398;50.928;7.084;2022-09-12T03:51:19;8.90;;;5.50;;
37559;SDS011;23398;50.928;7.084;2022-09-12T03:53:44;7.85;;;5.75;;
37559;SDS011;23398;50.928;7.084;2022-09-12T03:56:10;7.57;;;6.15;;
37559;SDS011;23398;50.928;7.084;2022-09-12T03:58:36;8.30;;;6.32;;
37559;SDS011;23398;50.928;7.084;2022-09-12T04:01:09;10.05;;;6.97;;
37559;SDS011;23398;50.928;7.084;2022-09-12T04:03:38;8.25;;;5.90;;
37559;SDS011;23398;50.928;7.084;2022-09-12T04:06:05;7.20;;;5.25;;
37559;SDS011;23398;50.928;7.084;2022-09-12T04:08:31;8.82;;;5.55;;
37559;SDS011;23398;50.928;7.084;2022-09-12T04:11:02;7.05;;;5.47;;
37559;SDS011;23398;50.928;7.084;2022-09-12T04:13:28;8.57;;;6.47;;
37559;SDS011;23398;50.928;7.084;2022-09-12T04:15:55;9.35;;;6.47;;
37559;SDS011;23398;50.928;7.084;2022-09-12T04:18:21;7.38;;;5.55;;
37559;SDS011;23398;50.928;7.084;2022-09-12T04:20:47;9.07;;;6.43;;
37559;SDS011;23398;50.928;7.084;2022-09-12T04:23:13;8.35;;;6.15;;
37559;SDS011;23398;50.928;7.084;2022-09-12T04:25:38;7.90;;;5.97;;
37559;SDS011;23398;50.928;7.084;2022-09-12T04:28:04;9.23;;;6.05;;
37559;SDS011;23398;50.928;7.084;2022-09-12T04:30:29;9.38;;;6.40;;
37559;SDS011;23398;50.928;7.084;2022-09-12T04:32:55;8.85;;;6.05;;
37559;SDS011;23398;50.928;7.084;2022-09-12T04:35:20;8.55;;;6.55;;
37559;SDS011;23398;50.928;7.084;2022-09-12T04:37:46;9.57;;;6.60;;
37559;SDS011;23398;50.928;7.084;2022-09-12T04:40:12;6.45;;;5.28;;
37559;SDS011;23398;50.928;7.084;2022-09-12T04:42:37;7.97;;;5.75;;
37559;SDS011;23398;50.928;7.084;2022-09-12T04:45:03;8.45;;;5.35;;
37559;SDS011;23398;50.928;7.084;2022-09-12T04:47:30;6.75;;;5.43;;
37559;SDS011;23398;50.928;7.084;2022-09-12T04:49:55;7.38;;;5.40;;
37559;SDS011;23398;50.928;7.084;2022-09-12T04:52:21;8.05;;;5.70;;
37559;SDS011;23398;50.928;7.084;2022-09-12T04:54:46;7.85;;;6.13;;
37559;SDS011;23398;50.928;7.084;2022-09-12T04:57:12;8.10;;;5.95;;
37559;SDS011;23398;50.928;7.084;2022-09-12T04:59:37;7.80;;;5.78;;
37559;SDS011;23398;50.928;7.084;2022-09-12T05:02:03;8.93;;;5.45;;
37559;SDS011;23398;50.928;7.084;2022-09-12T05:04:29;6.60;;;4.82;;
37559;SDS011;23398;50.928;7.084;2022-09-12T05:06:55;10.35;;;5.30;;
37559;SDS011;23398;50.928;7.084;2022-09-12T05:09:21;8.45;;;5.93;;
37559;SDS011;23398;50.928;7.084;2022-09-12T05:11:46;8.15;;;5.38;;
37559;SDS011;23398;50.928;7.084;2022-09-12T05:14:12;8.32;;;5.97;;
37559;SDS011;23398;50.928;7.084;2022-09-12T05:16:38;7.80;;;5.15;;
37559;SDS011;23398;50.928;7.084;2022-09-12T05:19:04;7.65;;;5.43;;
37559;SDS011;23398;50.928;7.084;2022-09-12T05:21:30;9.15;;;5.78;;
37559;SDS011;23398;50.928;7.084;2022-09-12T05:23:56;8.02;;;5.80;;
37559;SDS011;23398;50.928;7.084;2022-09-12T05:26:25;7.68;;;5.57;;
37559;SDS011;23398;50.928;7.084;2022-09-12T05:28:51;7.72;;;5.95;;
37559;SDS011;23398;50.928;7.084;2022-09-12T05:31:25;7.32;;;5.53;;
37559;SDS011;23398;50.928;7.084;2022-09-12T05:33:52;9.15;;;5.85;;
37559;SDS011;23398;50.928;7.084;2022-09-12T05:36:28;9.63;;;6.85;;
37559;SDS011;23398;50.928;7.084;2022-09-12T05:38:54;8.57;;;6.55;;
37559;SDS011;23398;50.928;7.084;2022-09-12T05:41:30;8.35;;;6.40;;
37559;SDS011;23398;50.928;7.084;2022-09-12T05:43:58;8.98;;;6.20;;
37559;SDS011;23398;50.928;7.084;2022-09-12T05:46:29;7.97;;;5.75;;
37559;SDS011;23398;50.928;7.084;2022-09-12T05:48:56;7.30;;;5.63;;
37559;SDS011;23398;50.928;7.084;2022-09-12T05:51:27;8.13;;;5.93;;
37559;SDS011;23398;50.928;7.084;2022-09-12T05:53:56;7.55;;;6.28;;
37559;SDS011;23398;50.928;7.084;2022-09-12T05:56:24;8.63;;;6.80;;
37559;SDS011;23398;50.928;7.084;2022-09-12T05:59:02;8.55;;;6.60;;
37559;SDS011;23398;50.928;7.084;2022-09-12T06:01:31;8.15;;;6.18;;
37559;SDS011;23398;50.928;7.084;2022-09-12T06:03:59;7.70;;;6.32;;
37559;SDS011;23398;50.928;7.084;2022-09-12T06:06:27;8.60;;;6.80;;
37559;SDS011;23398;50.928;7.084;2022-09-12T06:08:55;8.32;;;6.45;;
37559;SDS011;23398;50.928;7.084;2022-09-12T06:11:23;10.60;;;6.85;;
37559;SDS011;23398;50.928;7.084;2022-09-12T06:13:51;9.07;;;6.47;;
37559;SDS011;23398;50.928;7.084;2022-09-12T06:16:18;8.48;;;6.75;;
37559;SDS011;23398;50.928;7.084;2022-09-12T06:18:53;8.05;;;6.53;;
37559;SDS011;23398;50.928;7.084;2022-09-12T06:21:21;8.77;;;6.68;;
37559;SDS011;23398;50.928;7.084;2022-09-12T06:23:47;8.75;;;6.72;;
37559;SDS011;23398;50.928;7.084;2022-09-12T06:26:14;8.13;;;6.63;;
37559;SDS011;23398;50.928;7.084;2022-09-12T06:28:42;8.95;;;6.70;;
37559;SDS011;23398;50.928;7.084;2022-09-12T06:31:12;7.35;;;5.90;;
37559;SDS011;23398;50.928;7.084;2022-09-12T06:33:41;7.60;;;6.32;;
37559;SDS011;23398;50.928;7.084;2022-09-12T06:36:12;9.65;;;6.40;;
37559;SDS011;23398;50.928;7.084;2022-09-12T06:38:42;6.97;;;6.18;;
37559;SDS011;23398;50.928;7.084;2022-09-12T06:41:10;9.07;;;6.53;;
37559;SDS011;23398;50.928;7.084;2022-09-12T06:43:38;9.27;;;6.47;;
37559;SDS011;23398;50.928;7.084;2022-09-12T06:46:04;9.68;;;6.25;;
37559;SDS011;23398;50.928;7.084;2022-09-12T06:48:30;9.40;;;6.32;;
37559;SDS011;23398;50.928;7.084;2022-09-12T06:50:57;7.28;;;6.13;;
37559;SDS011;23398;50.928;7.084;2022-09-12T06:53:27;6.30;;;5.70;;
37559;SDS011;23398;50.928;7.084;2022-09-12T06:55:54;6.60;;;5.47;;
37559;SDS011;23398;50.928;7.084;2022-09-12T06:58:28;7.13;;;5.45;;
37559;SDS011;23398;50.928;7.084;2022-09-12T07:01:27;5.80;;;5.07;;
37559;SDS011;23398;50.928;7.084;2022-09-12T07:04:04;6.35;;;5.05;;
37559;SDS011;23398;50.928;7.084;2022-09-12T07:06:37;7.82;;;4.95;;
37559;SDS011;23398;50.928;7.084;2022-09-12T07:09:08;6.75;;;4.80;;
37559;SDS011;23398;50.928;7.084;2022-09-12T07:11:37;5.43;;;4.93;;
37559;SDS011;23398;50.928;7.084;2022-09-12T07:14:04;6.93;;;4.85;;
37559;SDS011;23398;50.928;7.084;2022-09-12T07:16:31;5.43;;;4.60;;
37559;SDS011;23398;50.928;7.084;2022-09-12T07:18:59;5.00;;;4.25;;
37559;SDS011;23398;50.928;7.084;2022-09-12T07:21:26;4.55;;;4.15;;
37559;SDS011;23398;50.928;7.084;2022-09-12T07:23:52;4.90;;;4.32;;
37559;SDS011;23398;50.928;7.084;2022-09-12T07:26:27;6.13;;;4.30;;
37559;SDS011;23398;50.928;7.084;2022-09-12T07:28:54;4.78;;;3.90;;
37559;SDS011;23398;50.928;7.084;2022-09-12T07:31:21;6.70;;;4.25;;
37559;SDS011;23398;50.928;7.084;2022-09-12T07:33:48;6.35;;;3.70;;
37559;SDS011;23398;50.928;7.084;2022-09-12T07:36:15;4.45;;;3.97;;
37559;SDS011;23398;50.928;7.084;2022-09-12T07:38:42;4.03;;;3.70;;
37559;SDS011;23398;50.928;7.084;2022-09-12T07:41:12;4.82;;;3.88;;
37559;SDS011;23398;50.928;7.084;2022-09-12T07:43:39;4.60;;;3.92;;
37559;SDS011;23398;50.928;7.084;2022-09-12T07:46:05;5.90;;;4.22;;
37559;SDS011;23398;50.928;7.084;2022-09-12T07:48:32;4.07;;;3.67;;
37559;SDS011;23398;50.928;7.084;2022-09-12T07:51:01;4.97;;;3.92;;
37559;SDS011;23398;50.928;7.084;2022-09-12T07:53:35;6.13;;;4.07;;
37559;SDS011;23398;50.928;7.084;2022-09-12T07:56:03;4.55;;;4.15;;
37559;SDS011;23398;50.928;7.084;2022-09-12T07:58:30;4.40;;;4.00;;
37559;SDS011;23398;50.928;7.084;2022-09-12T08:01:06;4.78;;;4.28;;
37559;SDS011;23398;50.928;7.084;2022-09-12T08:03:40;4.38;;;3.97;;
37559;SDS011;23398;50.928;7.084;2022-09-12T08:06:09;4.07;;;3.67;;
37559;SDS011;23398;50.928;7.084;2022-09-12T08:08:35;4.30;;;3.90;;
37559;SDS011;23398;50.928;7.084;2022-09-12T08:11:02;4.30;;;3.90;;
37559;SDS011;23398;50.928;7.084;2022-09-12T08:13:30;4.10;;;3.70;;
37559;SDS011;23398;50.928;7.084;2022-09-12T08:15:56;4.07;;;3.67;;
37559;SDS011;23398;50.928;7.084;2022-09-12T08:18:26;3.95;;;3.55;;
37559;SDS011;23398;50.928;7.084;2022-09-12T08:20:59;4.55;;;3.90;;
37559;SDS011;23398;50.928;7.084;2022-09-12T08:23:26;4.07;;;3.67;;
37559;SDS011;23398;50.928;7.084;2022-09-12T08:25:56;3.78;;;3.47;;
37559;SDS011;23398;50.928;7.084;2022-09-12T08:28:26;3.85;;;3.38;;
37559;SDS011;23398;50.928;7.084;2022-09-12T08:30:52;3.88;;;3.55;;
37559;SDS011;23398;50.928;7.084;2022-09-12T08:33:18;3.63;;;3.33;;
37559;SDS011;23398;50.928;7.084;2022-09-12T08:35:44;4.00;;;3.60;;
37559;SDS011;23398;50.928;7.084;2022-09-12T08:38:11;3.60;;;3.28;;
37559;SDS011;23398;50.928;7.084;2022-09-12T08:40:41;3.70;;;3.30;;
37559;SDS011;23398;50.928;7.084;2022-09-12T08:43:36;3.35;;;3.05;;
37559;SDS011;23398;50.928;7.084;2022-09-12T08:46:17;3.33;;;3.03;;
37559;SDS011;23398;50.928;7.084;2022-09-12T08:48:47;6.10;;;3.20;;
37559;SDS011;23398;50.928;7.084;2022-09-12T08:51:14;3.58;;;3.28;;
37559;SDS011;23398;50.928;7.084;2022-09-12T08:53:43;4.53;;;3.15;;
37559;SDS011;23398;50.928;7.084;2022-09-12T08:56:11;3.85;;;3.55;;
37559;SDS011;23398;50.928;7.084;2022-09-12T08:58:41;4.18;;;2.85;;
37559;SDS011;23398;50.928;7.084;2022-09-12T09:01:23;3.45;;;3.15;;
37559;SDS011;23398;50.928;7.084;2022-09-12T09:17:24;2.90;;;2.65;;
37559;SDS011;23398;50.928;7.084;2022-09-12T09:20:42;2.97;;;2.70;;
37559;SDS011;23398;50.928;7.084;2022-09-12T09:26:05;3.00;;;2.60;;
37559;SDS011;23398;50.928;7.084;2022-09-12T09:28:31;2.70;;;2.50;;
37559;SDS011;23398;50.928;7.084;2022-09-12T09:31:03;3.25;;;2.58;;
37559;SDS011;23398;50.928;7.084;2022-09-12T09:33:32;3.20;;;2.72;;
37559;SDS011;23398;50.928;7.084;2022-09-12T09:39:01;2.00;;;1.90;;
37559;SDS011;23398;50.928;7.084;2022-09-12T09:41:55;2.40;;;2.20;;
37559;SDS011;23398;50.928;7.084;2022-09-12T09:44:44;2.50;;;2.30;;
37559;SDS011;23398;50.928;7.084;2022-09-12T09:47:12;3.33;;;2.30;;
37559;SDS011;23398;50.928;7.084;2022-09-12T09:49:37;3.08;;;2.53;;
37559;SDS011;23398;50.928;7.084;2022-09-12T09:52:04;2.60;;;2.40;;
37559;SDS011;23398;50.928;7.084;2022-09-12T09:57:00;2.40;;;2.20;;
37559;SDS011;23398;50.928;7.084;2022-09-12T09:59:26;2.28;;;2.13;;
37559;SDS011;23398;50.928;7.084;2022-09-12T10:01:57;2.25;;;2.10;;
37559;SDS011;23398;50.928;7.084;2022-09-12T10:04:40;2.22;;;2.03;;
37559;SDS011;23398;50.928;7.084;2022-09-12T10:07:18;2.50;;;2.22;;
37559;SDS011;23398;50.928;7.084;2022-09-12T10:12:39;2.78;;;2.10;;
37559;SDS011;23398;50.928;7.084;2022-09-12T10:15:15;2.85;;;2.15;;
37559;SDS011;23398;50.928;7.084;2022-09-12T10:17:43;2.30;;;2.13;;
37559;SDS011;23398;50.928;7.084;2022-09-12T10:25:53;2.53;;;2.22;;
37559;SDS011;23398;50.928;7.084;2022-09-12T10:28:22;2.35;;;2.15;;
37559;SDS011;23398;50.928;7.084;2022-09-12T10:30:55;2.42;;;2.22;;
37559;SDS011;23398;50.928;7.084;2022-09-12T10:33:21;2.40;;;2.20;;
37559;SDS011;23398;50.928;7.084;2022-09-12T10:35:49;2.28;;;2.08;;
37559;SDS011;23398;50.928;7.084;2022-09-12T10:38:25;2.55;;;2.22;;
37559;SDS011;23398;50.928;7.084;2022-09-12T10:40:56;2.70;;;2.35;;
37559;SDS011;23398;50.928;7.084;2022-09-12T10:48:38;2.47;;;2.05;;
37559;SDS011;23398;50.928;7.084;2022-09-12T10:51:04;2.47;;;2.28;;
37559;SDS011;23398;50.928;7.084;2022-09-12T10:53:42;2.60;;;2.40;;
37559;SDS011;23398;50.928;7.084;2022-09-12T10:56:20;2.60;;;2.40;;
37559;SDS011;23398;50.928;7.084;2022-09-12T11:02:08;2.28;;;1.90;;
37559;SDS011;23398;50.928;7.084;2022-09-12T11:07:24;1.60;;;1.50;;
37559;SDS011;23398;50.928;7.084;2022-09-12T11:15:48;2.65;;;1.98;;
37559;SDS011;23398;50.928;7.084;2022-09-12T11:18:42;2.60;;;2.30;;
37559;SDS011;23398;50.928;7.084;2022-09-12T11:24:18;2.60;;;2.40;;
37559;SDS011;23398;50.928;7.084;2022-09-12T11:29:46;2.28;;;2.08;;
37559;SDS011;23398;50.928;7.084;2022-09-12T11:35:15;3.17;;;2.42;;
37559;SDS011;23398;50.928;7.084;2022-09-12T11:43:37;2.58;;;2.38;;
37559;SDS011;23398;50.928;7.084;2022-09-12T11:51:49;2.88;;;2.00;;
37559;SDS011;23398;50.928;7.084;2022-09-12T11:54:20;4.13;;;2.20;;
37559;SDS011;23398;50.928;7.084;2022-09-12T11:56:48;2.40;;;2.20;;
37559;SDS011;23398;50.928;7.084;2022-09-12T11:59:27;2.67;;;2.40;;
37559;SDS011;23398;50.928;7.084;2022-09-12T12:02:10;2.63;;;2.10;;
37559;SDS011;23398;50.928;7.084;2022-09-12T12:04:57;2.95;;;2.25;;
37559;SDS011;23398;50.928;7.084;2022-09-12T12:07:41;2.50;;;2.30;;
37559;SDS011;23398;50.928;7.084;2022-09-12T12:10:26;2.88;;;2.55;;
37559;SDS011;23398;50.928;7.084;2022-09-12T12:12:56;2.20;;;2.00;;
37559;SDS011;23398;50.928;7.084;2022-09-12T12:15:24;2.28;;;2.08;;
37559;SDS011;23398;50.928;7.084;2022-09-12T12:18:07;2.15;;;1.95;;
37559;SDS011;23398;50.928;7.084;2022-09-12T12:20:41;1.90;;;1.52;;
37559;SDS011;23398;50.928;7.084;2022-09-12T12:23:20;3.65;;;1.88;;
37559;SDS011;23398;50.928;7.084;2022-09-12T12:26:02;3.92;;;2.30;;
37559;SDS011;23398;50.928;7.084;2022-09-12T12:31:15;1.92;;;1.83;;
37559;SDS011;23398;50.928;7.084;2022-09-12T12:36:29;1.60;;;1.50;;
37559;SDS011;23398;50.928;7.084;2022-09-12T12:38:58;2.58;;;1.50;;
37559;SDS011;23398;50.928;7.084;2022-09-12T12:41:44;1.63;;;1.52;;
37559;SDS011;23398;50.928;7.084;2022-09-12T12:47:21;3.03;;;1.80;;
37559;SDS011;23398;50.928;7.084;2022-09-12T12:49:52;2.00;;;1.80;;
37559;SDS011;23398;50.928;7.084;2022-09-12T12:52:19;2.40;;;1.90;;
37559;SDS011;23398;50.928;7.084;2022-09-12T13:02:50;1.98;;;1.77;;
37559;SDS011;23398;50.928;7.084;2022-09-12T13:05:22;1.90;;;1.60;;
37559;SDS011;23398;50.928;7.084;2022-09-12T13:07:53;1.50;;;1.40;;
37559;SDS011;23398;50.928;7.084;2022-09-12T13:10:27;1.50;;;1.40;;
37559;SDS011;23398;50.928;7.084;2022-09-12T13:12:54;1.77;;;1.67;;
37559;SDS011;23398;50.928;7.084;2022-09-12T13:18:01;2.00;;;1.90;;
37559;SDS011;23398;50.928;7.084;2022-09-12T13:20:37;1.90;;;1.63;;
37559;SDS011;23398;50.928;7.084;2022-09-12T13:23:27;2.95;;;2.10;;
37559;SDS011;23398;50.928;7.084;2022-09-12T13:25:55;2.72;;;2.00;;
37559;SDS011;23398;50.928;7.084;2022-09-12T13:28:22;2.10;;;1.90;;
37559;SDS011;23398;50.928;7.084;2022-09-12T13:39:13;1.60;;;1.45;;
37559;SDS011;23398;50.928;7.084;2022-09-12T13:44:47;1.55;;;1.40;;
37559;SDS011;23398;50.928;7.084;2022-09-12T13:47:21;1.80;;;1.60;;
37559;SDS011;23398;50.928;7.084;2022-09-12T13:49:54;1.50;;;1.40;;
37559;SDS011;23398;50.928;7.084;2022-09-12T13:52:22;2.63;;;1.50;;
37559;SDS011;23398;50.928;7.084;2022-09-12T13:54:53;4.57;;;1.70;;
37559;SDS011;23398;50.928;7.084;2022-09-12T13:57:31;3.45;;;1.90;;
37559;SDS011;23398;50.928;7.084;2022-09-12T14:00:03;1.70;;;1.45;;
37559;SDS011;23398;50.928;7.084;2022-09-12T14:02:33;1.60;;;1.50;;
37559;SDS011;23398;50.928;7.084;2022-09-12T14:05:00;2.45;;;1.52;;
37559;SDS011;23398;50.928;7.084;2022-09-12T14:07:33;11.50;;;1.83;;
37559;SDS011;23398;50.928;7.084;2022-09-12T14:10:12;1.52;;;1.42;;
37559;SDS011;23398;50.928;7.084;2022-09-12T14:12:50;1.63;;;1.50;;
37559;SDS011;23398;50.928;7.084;2022-09-12T14:15:26;1.65;;;1.55;;
37559;SDS011;23398;50.928;7.084;2022-09-12T14:17:56;1.67;;;1.58;;
37559;SDS011;23398;50.928;7.084;2022-09-12T14:20:26;1.70;;;1.60;;
37559;SDS011;23398;50.928;7.084;2022-09-12T14:22:58;1.85;;;1.67;;
37559;SDS011;23398;50.928;7.084;2022-09-12T14:25:33;2.00;;;1.80;;
37559;SDS011;23398;50.928;7.084;2022-09-12T14:28:03;1.60;;;1.50;;
37559;SDS011;23398;50.928;7.084;2022-09-12T14:30:29;1.88;;;1.60;;
37559;SDS011;23398;50.928;7.084;2022-09-12T14:35:41;1.70;;;1.60;;
37559;SDS011;23398;50.928;7.084;2022-09-12T14:40:44;4.93;;;1.80;;
37559;SDS011;23398;50.928;7.084;2022-09-12T14:43:23;1.70;;;1.60;;
37559;SDS011;23398;50.928;7.084;2022-09-12T14:46:00;1.80;;;1.70;;
37559;SDS011;23398;50.928;7.084;2022-09-12T14:48:32;2.95;;;1.80;;
37559;SDS011;23398;50.928;7.084;2022-09-12T14:51:01;1.98;;;1.77;;
37559;SDS011;23398;50.928;7.084;2022-09-12T14:53:34;2.83;;;1.77;;
37559;SDS011;23398;50.928;7.084;2022-09-12T14:56:06;1.90;;;1.63;;
37559;SDS011;23398;50.928;7.084;2022-09-12T14:58:33;1.75;;;1.65;;
37559;SDS011;23398;50.928;7.084;2022-09-12T15:01:20;2.13;;;1.70;;
37559;SDS011;23398;50.928;7.084;2022-09-12T15:06:26;8.30;;;1.90;;
37559;SDS011;23398;50.928;7.084;2022-09-12T15:08:54;1.90;;;1.70;;
37559;SDS011;23398;50.928;7.084;2022-09-12T15:11:23;1.70;;;1.60;;
37559;SDS011;23398;50.928;7.084;2022-09-12T15:13:49;1.70;;;1.60;;
37559;SDS011;23398;50.928;7.084;2022-09-12T15:16:15;2.70;;;1.85;;
37559;SDS011;23398;50.928;7.084;2022-09-12T15:18:41;1.83;;;1.73;;
37559;SDS011;23398;50.928;7.084;2022-09-12T15:21:07;2.22;;;2.00;;
37559;SDS011;23398;50.928;7.084;2022-09-12T15:23:43;5.68;;;1.90;;
37559;SDS011;23398;50.928;7.084;2022-09-12T15:26:13;1.80;;;1.70;;
37559;SDS011;23398;50.928;7.084;2022-09-12T15:28:44;1.70;;;1.60;;
37559;SDS011;23398;50.928;7.084;2022-09-12T15:31:31;2.72;;;2.00;;
37559;SDS011;23398;50.928;7.084;2022-09-12T15:33:57;1.70;;;1.58;;
37559;SDS011;23398;50.928;7.084;2022-09-12T15:36:24;2.58;;;2.05;;
37559;SDS011;23398;50.928;7.084;2022-09-12T15:38:50;2.00;;;1.73;;
37559;SDS011;23398;50.928;7.084;2022-09-12T15:41:17;2.20;;;2.00;;
37559;SDS011;23398;50.928;7.084;2022-09-12T15:43:45;2.20;;;2.00;;
37559;SDS011;23398;50.928;7.084;2022-09-12T15:46:11;2.40;;;1.95;;
37559;SDS011;23398;50.928;7.084;2022-09-12T15:48:38;1.90;;;1.80;;
37559;SDS011;23398;50.928;7.084;2022-09-12T15:51:22;2.22;;;2.03;;
37559;SDS011;23398;50.928;7.084;2022-09-12T15:53:49;2.08;;;1.88;;
37559;SDS011;23398;50.928;7.084;2022-09-12T15:56:15;2.03;;;1.77;;
37559;SDS011;23398;50.928;7.084;2022-09-12T15:58:42;2.17;;;1.98;;
37559;SDS011;23398;50.928;7.084;2022-09-12T16:01:11;3.35;;;2.00;;
37559;SDS011;23398;50.928;7.084;2022-09-12T16:03:38;1.90;;;1.80;;
37559;SDS011;23398;50.928;7.084;2022-09-12T16:06:04;1.90;;;1.80;;
37559;SDS011;23398;50.928;7.084;2022-09-12T16:08:31;2.10;;;1.85;;
37559;SDS011;23398;50.928;7.084;2022-09-12T16:10:58;2.00;;;1.85;;
37559;SDS011;23398;50.928;7.084;2022-09-12T16:13:26;2.35;;;1.90;;
37559;SDS011;23398;50.928;7.084;2022-09-12T16:15:55;2.55;;;1.80;;
37559;SDS011;23398;50.928;7.084;2022-09-12T16:18:21;2.20;;;2.00;;
37559;SDS011;23398;50.928;7.084;2022-09-12T16:20:50;1.90;;;1.80;;
37559;SDS011;23398;50.928;7.084;2022-09-12T16:23:16;2.83;;;1.80;;
37559;SDS011;23398;50.928;7.084;2022-09-12T16:25:42;2.15;;;1.95;;
37559;SDS011;23398;50.928;7.084;2022-09-12T16:28:07;2.63;;;2.00;;
37559;SDS011;23398;50.928;7.084;2022-09-12T16:30:33;2.30;;;2.10;;
37559;SDS011;23398;50.928;7.084;2022-09-12T16:32:59;2.28;;;2.08;;
37559;SDS011;23398;50.928;7.084;2022-09-12T16:35:25;2.00;;;1.85;;
37559;SDS011;23398;50.928;7.084;2022-09-12T16:37:51;2.20;;;2.00;;
37559;SDS011;23398;50.928;7.084;2022-09-12T16:40:16;2.00;;;1.80;;
37559;SDS011;23398;50.928;7.084;2022-09-12T16:42:43;4.03;;;2.05;;
37559;SDS011;23398;50.928;7.084;2022-09-12T16:45:09;2.25;;;2.05;;
37559;SDS011;23398;50.928;7.084;2022-09-12T16:47:35;2.45;;;2.00;;
37559;SDS011;23398;50.928;7.084;2022-09-12T16:50:01;2.78;;;2.13;;
37559;SDS011;23398;50.928;7.084;2022-09-12T16:52:27;2.13;;;1.90;;
37559;SDS011;23398;50.928;7.084;2022-09-12T16:54:53;2.92;;;2.08;;
37559;SDS011;23398;50.928;7.084;2022-09-12T16:57:18;2.10;;;1.90;;
37559;SDS011;23398;50.928;7.084;2022-09-12T16:59:44;2.40;;;2.20;;
37559;SDS011;23398;50.928;7.084;2022-09-12T17:02:10;2.20;;;2.00;;
37559;SDS011;23398;50.928;7.084;2022-09-12T17:04:37;2.03;;;1.90;;
37559;SDS011;23398;50.928;7.084;2022-09-12T17:07:03;3.13;;;1.92;;
37559;SDS011;23398;50.928;7.084;2022-09-12T17:09:28;2.05;;;1.80;;
37559;SDS011;23398;50.928;7.084;2022-09-12T17:11:54;2.15;;;1.95;;
37559;SDS011;23398;50.928;7.084;2022-09-12T17:14:20;2.22;;;2.00;;
37559;SDS011;23398;50.928;7.084;2022-09-12T17:16:46;2.25;;;2.03;;
37559;SDS011;23398;50.928;7.084;2022-09-12T17:19:16;2.00;;;1.90;;
37559;SDS011;23398;50.928;7.084;2022-09-12T17:21:46;2.50;;;1.90;;
37559;SDS011;23398;50.928;7.084;2022-09-12T17:24:16;1.70;;;1.60;;
37559;SDS011;23398;50.928;7.084;2022-09-12T17:26:42;2.10;;;1.90;;
37559;SDS011;23398;50.928;7.084;2022-09-12T17:29:12;2.20;;;2.00;;
37559;SDS011;23398;50.928;7.084;2022-09-12T17:31:39;2.13;;;1.92;;